sensor_id;sensor_type;location;lat;lon;timestamp;P1;durP1;ratioP1;P2;durP2;ratioP2
64868;SDS011;51349;52.424;10.840;2023-07-02T00:04:54;7.30;;;5.43;;
64868;SDS011;51349;52.424;10.840;2023-07-02T00:09:55;5.32;;;4.82;;
64868;SDS011;51349;52.424;10.840;2023-07-02T00:14:56;5.72;;;5.03;;
64868;SDS011;51349;52.424;10.840;2023-07-02T00:19:57;5.20;;;4.90;;
64868;SDS011;51349;52.424;10.840;2023-07-02T00:25:02;5.72;;;5.30;;
64868;SDS011;51349;52.424;10.840;2023-07-02T00:30:03;7.15;;;5.57;;
64868;SDS011;51349;52.424;10.840;2023-07-02T00:35:04;6.28;;;5.68;;
64868;SDS011;51349;52.424;10.840;2023-07-02T00:40:05;8.57;;;6.28;;
64868;SDS011;51349;52.424;10.840;2023-07-02T00:45:07;6.43;;;5.82;;
64868;SDS011;51349;52.424;10.840;2023-07-02T00:50:09;7.82;;;5.90;;
64868;SDS011;51349;52.424;10.840;2023-07-02T00:55:10;5.97;;;5.50;;
64868;SDS011;51349;52.424;10.840;2023-07-02T01:00:11;9.15;;;5.93;;
64868;SDS011;51349;52.424;10.840;2023-07-02T01:05:14;6.13;;;5.47;;
64868;SDS011;51349;52.424;10.840;2023-07-02T01:10:21;9.23;;;5.60;;
64868;SDS011;51349;52.424;10.840;2023-07-02T01:15:22;7.53;;;5.57;;
64868;SDS011;51349;52.424;10.840;2023-07-02T01:20:22;6.30;;;5.68;;
64868;SDS011;51349;52.424;10.840;2023-07-02T01:25:26;6.10;;;5.60;;
64868;SDS011;51349;52.424;10.840;2023-07-02T01:30:27;5.72;;;5.32;;
64868;SDS011;51349;52.424;10.840;2023-07-02T01:35:28;7.93;;;5.22;;
64868;SDS011;51349;52.424;10.840;2023-07-02T01:40:28;6.97;;;4.55;;
64868;SDS011;51349;52.424;10.840;2023-07-02T01:45:29;5.25;;;4.80;;
64868;SDS011;51349;52.424;10.840;2023-07-02T01:50:30;5.90;;;4.32;;
64868;SDS011;51349;52.424;10.840;2023-07-02T01:55:30;6.13;;;4.63;;
64868;SDS011;51349;52.424;10.840;2023-07-02T02:00:32;7.60;;;4.43;;
64868;SDS011;51349;52.424;10.840;2023-07-02T02:05:33;4.57;;;4.18;;
64868;SDS011;51349;52.424;10.840;2023-07-02T02:10:33;6.97;;;4.18;;
64868;SDS011;51349;52.424;10.840;2023-07-02T02:15:34;6.28;;;3.65;;
64868;SDS011;51349;52.424;10.840;2023-07-02T02:20:35;4.57;;;3.95;;
64868;SDS011;51349;52.424;10.840;2023-07-02T02:25:35;6.43;;;4.03;;
64868;SDS011;51349;52.424;10.840;2023-07-02T02:30:36;6.22;;;3.65;;
64868;SDS011;51349;52.424;10.840;2023-07-02T02:35:37;5.20;;;3.60;;
64868;SDS011;51349;52.424;10.840;2023-07-02T02:40:37;12.75;;;3.95;;
64868;SDS011;51349;52.424;10.840;2023-07-02T02:45:38;5.78;;;3.53;;
64868;SDS011;51349;52.424;10.840;2023-07-02T02:50:39;3.65;;;3.35;;
64868;SDS011;51349;52.424;10.840;2023-07-02T02:55:41;5.75;;;4.00;;
64868;SDS011;51349;52.424;10.840;2023-07-02T03:00:41;3.85;;;3.53;;
64868;SDS011;51349;52.424;10.840;2023-07-02T03:05:45;4.15;;;3.70;;
64868;SDS011;51349;52.424;10.840;2023-07-02T03:10:48;4.00;;;3.50;;
64868;SDS011;51349;52.424;10.840;2023-07-02T03:15:48;4.35;;;3.92;;
64868;SDS011;51349;52.424;10.840;2023-07-02T03:20:49;6.15;;;3.42;;
64868;SDS011;51349;52.424;10.840;2023-07-02T03:25:50;4.40;;;3.85;;
64868;SDS011;51349;52.424;10.840;2023-07-02T03:30:50;5.10;;;3.90;;
64868;SDS011;51349;52.424;10.840;2023-07-02T03:35:51;5.85;;;4.00;;
64868;SDS011;51349;52.424;10.840;2023-07-02T03:40:52;5.43;;;3.72;;
64868;SDS011;51349;52.424;10.840;2023-07-02T03:45:52;5.55;;;4.03;;
64868;SDS011;51349;52.424;10.840;2023-07-02T03:50:53;6.55;;;4.13;;
64868;SDS011;51349;52.424;10.840;2023-07-02T03:55:54;4.65;;;4.35;;
64868;SDS011;51349;52.424;10.840;2023-07-02T04:00:54;4.53;;;4.13;;
64868;SDS011;51349;52.424;10.840;2023-07-02T04:05:55;4.60;;;4.20;;
64868;SDS011;51349;52.424;10.840;2023-07-02T04:10:56;5.70;;;4.32;;
64868;SDS011;51349;52.424;10.840;2023-07-02T04:15:56;5.10;;;3.95;;
64868;SDS011;51349;52.424;10.840;2023-07-02T04:20:57;5.93;;;3.95;;
64868;SDS011;51349;52.424;10.840;2023-07-02T04:25:58;4.70;;;3.97;;
64868;SDS011;51349;52.424;10.840;2023-07-02T04:30:59;5.68;;;4.15;;
64868;SDS011;51349;52.424;10.840;2023-07-02T04:35:59;5.22;;;4.32;;
64868;SDS011;51349;52.424;10.840;2023-07-02T04:41:00;5.38;;;4.40;;
64868;SDS011;51349;52.424;10.840;2023-07-02T04:46:05;4.57;;;4.25;;
64868;SDS011;51349;52.424;10.840;2023-07-02T04:51:07;5.05;;;4.50;;
64868;SDS011;51349;52.424;10.840;2023-07-02T04:56:07;4.40;;;4.00;;
64868;SDS011;51349;52.424;10.840;2023-07-02T05:01:08;4.63;;;4.00;;
64868;SDS011;51349;52.424;10.840;2023-07-02T05:06:09;4.78;;;4.38;;
64868;SDS011;51349;52.424;10.840;2023-07-02T05:11:09;6.78;;;4.70;;
64868;SDS011;51349;52.424;10.840;2023-07-02T05:16:10;8.75;;;4.95;;
64868;SDS011;51349;52.424;10.840;2023-07-02T05:21:11;5.82;;;4.90;;
64868;SDS011;51349;52.424;10.840;2023-07-02T05:26:12;6.00;;;5.45;;
64868;SDS011;51349;52.424;10.840;2023-07-02T05:31:12;5.45;;;4.95;;
64868;SDS011;51349;52.424;10.840;2023-07-02T05:36:13;7.70;;;6.05;;
64868;SDS011;51349;52.424;10.840;2023-07-02T05:41:17;6.25;;;5.70;;
64868;SDS011;51349;52.424;10.840;2023-07-02T05:46:19;6.78;;;5.68;;
64868;SDS011;51349;52.424;10.840;2023-07-02T05:51:20;6.38;;;5.80;;
64868;SDS011;51349;52.424;10.840;2023-07-02T05:56:21;6.10;;;5.68;;
64868;SDS011;51349;52.424;10.840;2023-07-02T06:01:22;6.80;;;6.00;;
64868;SDS011;51349;52.424;10.840;2023-07-02T06:06:23;6.25;;;5.85;;
64868;SDS011;51349;52.424;10.840;2023-07-02T06:11:26;6.72;;;6.13;;
64868;SDS011;51349;52.424;10.840;2023-07-02T06:16:27;6.45;;;5.88;;
64868;SDS011;51349;52.424;10.840;2023-07-02T06:21:28;6.75;;;6.20;;
64868;SDS011;51349;52.424;10.840;2023-07-02T06:26:29;6.78;;;5.47;;
64868;SDS011;51349;52.424;10.840;2023-07-02T06:31:31;7.65;;;5.93;;
64868;SDS011;51349;52.424;10.840;2023-07-02T06:36:32;6.63;;;5.57;;
64868;SDS011;51349;52.424;10.840;2023-07-02T06:41:32;6.93;;;5.70;;
64868;SDS011;51349;52.424;10.840;2023-07-02T06:46:33;6.40;;;5.80;;
64868;SDS011;51349;52.424;10.840;2023-07-02T06:51:34;8.38;;;5.82;;
64868;SDS011;51349;52.424;10.840;2023-07-02T06:56:34;8.10;;;5.82;;
64868;SDS011;51349;52.424;10.840;2023-07-02T07:01:35;7.18;;;5.18;;
64868;SDS011;51349;52.424;10.840;2023-07-02T07:06:36;8.00;;;5.85;;
64868;SDS011;51349;52.424;10.840;2023-07-02T07:11:38;10.93;;;5.78;;
64868;SDS011;51349;52.424;10.840;2023-07-02T07:16:38;11.40;;;6.00;;
64868;SDS011;51349;52.424;10.840;2023-07-02T07:21:39;12.27;;;6.15;;
64868;SDS011;51349;52.424;10.840;2023-07-02T07:26:40;10.73;;;5.80;;
64868;SDS011;51349;52.424;10.840;2023-07-02T07:31:41;12.18;;;5.82;;
64868;SDS011;51349;52.424;10.840;2023-07-02T07:36:42;11.00;;;5.40;;
64868;SDS011;51349;52.424;10.840;2023-07-02T07:41:46;12.27;;;5.95;;
64868;SDS011;51349;52.424;10.840;2023-07-02T07:46:48;9.48;;;5.88;;
64868;SDS011;51349;52.424;10.840;2023-07-02T07:51:48;9.73;;;5.90;;
64868;SDS011;51349;52.424;10.840;2023-07-02T07:56:49;9.57;;;5.70;;
64868;SDS011;51349;52.424;10.840;2023-07-02T08:01:50;9.13;;;5.82;;
64868;SDS011;51349;52.424;10.840;2023-07-02T08:06:51;10.18;;;6.70;;
64868;SDS011;51349;52.424;10.840;2023-07-02T08:11:51;9.43;;;5.97;;
64868;SDS011;51349;52.424;10.840;2023-07-02T08:16:52;13.13;;;6.28;;
64868;SDS011;51349;52.424;10.840;2023-07-02T08:21:53;8.68;;;6.38;;
64868;SDS011;51349;52.424;10.840;2023-07-02T08:26:53;9.32;;;6.25;;
64868;SDS011;51349;52.424;10.840;2023-07-02T08:31:54;9.55;;;6.55;;
64868;SDS011;51349;52.424;10.840;2023-07-02T08:36:54;10.00;;;6.20;;
64868;SDS011;51349;52.424;10.840;2023-07-02T08:41:55;12.85;;;6.88;;
64868;SDS011;51349;52.424;10.840;2023-07-02T08:46:56;10.38;;;6.20;;
64868;SDS011;51349;52.424;10.840;2023-07-02T08:51:57;11.40;;;6.05;;
64868;SDS011;51349;52.424;10.840;2023-07-02T08:57:01;8.52;;;6.30;;
64868;SDS011;51349;52.424;10.840;2023-07-02T09:02:05;12.40;;;7.18;;
64868;SDS011;51349;52.424;10.840;2023-07-02T09:07:07;9.60;;;7.10;;
64868;SDS011;51349;52.424;10.840;2023-07-02T09:12:09;9.40;;;6.18;;
64868;SDS011;51349;52.424;10.840;2023-07-02T09:17:10;8.98;;;6.55;;
64868;SDS011;51349;52.424;10.840;2023-07-02T09:22:11;11.60;;;6.80;;
64868;SDS011;51349;52.424;10.840;2023-07-02T09:27:15;9.10;;;6.40;;
64868;SDS011;51349;52.424;10.840;2023-07-02T09:32:23;14.68;;;7.35;;
64868;SDS011;51349;52.424;10.840;2023-07-02T09:37:25;11.02;;;6.45;;
64868;SDS011;51349;52.424;10.840;2023-07-02T09:42:26;12.68;;;5.85;;
64868;SDS011;51349;52.424;10.840;2023-07-02T09:47:29;10.07;;;6.53;;
64868;SDS011;51349;52.424;10.840;2023-07-02T09:52:32;9.35;;;6.75;;
64868;SDS011;51349;52.424;10.840;2023-07-02T09:57:34;8.68;;;6.45;;
64868;SDS011;51349;52.424;10.840;2023-07-02T10:02:35;9.73;;;6.28;;
64868;SDS011;51349;52.424;10.840;2023-07-02T10:07:36;11.45;;;7.00;;
64868;SDS011;51349;52.424;10.840;2023-07-02T10:12:45;9.10;;;6.10;;
64868;SDS011;51349;52.424;10.840;2023-07-02T10:17:54;11.80;;;6.65;;
64868;SDS011;51349;52.424;10.840;2023-07-02T10:22:58;8.52;;;6.32;;
64868;SDS011;51349;52.424;10.840;2023-07-02T10:27:59;9.15;;;6.32;;
64868;SDS011;51349;52.424;10.840;2023-07-02T10:33:11;8.75;;;6.93;;
64868;SDS011;51349;52.424;10.840;2023-07-02T10:43:24;7.97;;;6.72;;
64868;SDS011;51349;52.424;10.840;2023-07-02T10:48:28;10.82;;;6.47;;
64868;SDS011;51349;52.424;10.840;2023-07-02T10:53:30;8.35;;;6.57;;
64868;SDS011;51349;52.424;10.840;2023-07-02T10:58:31;10.57;;;7.15;;
64868;SDS011;51349;52.424;10.840;2023-07-02T11:03:42;9.23;;;6.53;;
64868;SDS011;51349;52.424;10.840;2023-07-02T11:08:43;13.32;;;7.22;;
64868;SDS011;51349;52.424;10.840;2023-07-02T11:13:44;9.40;;;6.75;;
64868;SDS011;51349;52.424;10.840;2023-07-02T11:18:53;11.07;;;6.47;;
64868;SDS011;51349;52.424;10.840;2023-07-02T11:24:04;7.93;;;6.50;;
64868;SDS011;51349;52.424;10.840;2023-07-02T11:29:12;11.57;;;6.95;;
64868;SDS011;51349;52.424;10.840;2023-07-02T11:34:20;12.40;;;6.53;;
64868;SDS011;51349;52.424;10.840;2023-07-02T11:39:21;10.68;;;6.32;;
64868;SDS011;51349;52.424;10.840;2023-07-02T11:44:22;8.77;;;6.03;;
64868;SDS011;51349;52.424;10.840;2023-07-02T11:49:23;8.20;;;6.05;;
64868;SDS011;51349;52.424;10.840;2023-07-02T11:54:24;22.00;;;6.75;;
64868;SDS011;51349;52.424;10.840;2023-07-02T11:59:24;11.15;;;6.32;;
64868;SDS011;51349;52.424;10.840;2023-07-02T12:04:25;16.33;;;6.68;;
64868;SDS011;51349;52.424;10.840;2023-07-02T12:09:26;11.07;;;6.03;;
64868;SDS011;51349;52.424;10.840;2023-07-02T12:14:27;8.30;;;5.63;;
64868;SDS011;51349;52.424;10.840;2023-07-02T12:19:28;12.90;;;6.35;;
64868;SDS011;51349;52.424;10.840;2023-07-02T12:24:28;9.20;;;6.22;;
64868;SDS011;51349;52.424;10.840;2023-07-02T12:29:29;10.50;;;5.95;;
64868;SDS011;51349;52.424;10.840;2023-07-02T12:34:31;12.88;;;5.80;;
64868;SDS011;51349;52.424;10.840;2023-07-02T12:39:32;10.15;;;5.80;;
64868;SDS011;51349;52.424;10.840;2023-07-02T12:44:32;8.52;;;6.00;;
64868;SDS011;51349;52.424;10.840;2023-07-02T12:49:33;8.98;;;5.95;;
64868;SDS011;51349;52.424;10.840;2023-07-02T12:54:34;6.82;;;5.80;;
64868;SDS011;51349;52.424;10.840;2023-07-02T12:59:34;7.35;;;5.32;;
64868;SDS011;51349;52.424;10.840;2023-07-02T13:04:35;10.60;;;6.15;;
64868;SDS011;51349;52.424;10.840;2023-07-02T13:09:36;12.93;;;5.90;;
64868;SDS011;51349;52.424;10.840;2023-07-02T13:14:37;7.97;;;5.22;;
64868;SDS011;51349;52.424;10.840;2023-07-02T13:19:37;7.43;;;5.78;;
64868;SDS011;51349;52.424;10.840;2023-07-02T13:24:38;9.18;;;5.75;;
64868;SDS011;51349;52.424;10.840;2023-07-02T13:29:40;9.73;;;5.07;;
64868;SDS011;51349;52.424;10.840;2023-07-02T13:34:41;5.60;;;5.03;;
64868;SDS011;51349;52.424;10.840;2023-07-02T13:39:41;6.90;;;5.32;;
64868;SDS011;51349;52.424;10.840;2023-07-02T13:44:42;10.55;;;5.38;;
64868;SDS011;51349;52.424;10.840;2023-07-02T13:49:43;6.30;;;5.03;;
64868;SDS011;51349;52.424;10.840;2023-07-02T13:54:44;5.50;;;4.80;;
64868;SDS011;51349;52.424;10.840;2023-07-02T13:59:44;10.10;;;6.05;;
64868;SDS011;51349;52.424;10.840;2023-07-02T14:04:45;8.30;;;5.38;;
64868;SDS011;51349;52.424;10.840;2023-07-02T14:09:45;6.85;;;4.88;;
64868;SDS011;51349;52.424;10.840;2023-07-02T14:14:46;8.32;;;5.03;;
64868;SDS011;51349;52.424;10.840;2023-07-02T14:19:47;5.28;;;4.78;;
64868;SDS011;51349;52.424;10.840;2023-07-02T14:24:47;9.15;;;5.13;;
64868;SDS011;51349;52.424;10.840;2023-07-02T14:29:48;10.52;;;5.10;;
64868;SDS011;51349;52.424;10.840;2023-07-02T14:34:49;6.78;;;4.93;;
64868;SDS011;51349;52.424;10.840;2023-07-02T14:39:49;7.82;;;5.25;;
64868;SDS011;51349;52.424;10.840;2023-07-02T14:44:50;7.22;;;4.93;;
64868;SDS011;51349;52.424;10.840;2023-07-02T14:49:51;14.48;;;5.60;;
64868;SDS011;51349;52.424;10.840;2023-07-02T14:54:51;8.07;;;5.32;;
64868;SDS011;51349;52.424;10.840;2023-07-02T14:59:52;7.85;;;5.10;;
64868;SDS011;51349;52.424;10.840;2023-07-02T15:04:53;8.27;;;4.85;;
64868;SDS011;51349;52.424;10.840;2023-07-02T15:09:53;8.10;;;5.38;;
64868;SDS011;51349;52.424;10.840;2023-07-02T15:14:54;9.40;;;5.43;;
64868;SDS011;51349;52.424;10.840;2023-07-02T15:19:55;10.50;;;5.75;;
64868;SDS011;51349;52.424;10.840;2023-07-02T15:24:55;7.40;;;5.03;;
64868;SDS011;51349;52.424;10.840;2023-07-02T15:29:56;7.68;;;5.25;;
64868;SDS011;51349;52.424;10.840;2023-07-02T15:34:57;5.95;;;4.07;;
64868;SDS011;51349;52.424;10.840;2023-07-02T15:39:57;7.68;;;4.78;;
64868;SDS011;51349;52.424;10.840;2023-07-02T15:44:58;7.22;;;4.88;;
64868;SDS011;51349;52.424;10.840;2023-07-02T15:50:00;5.28;;;4.45;;
64868;SDS011;51349;52.424;10.840;2023-07-02T15:55:00;12.85;;;4.93;;
64868;SDS011;51349;52.424;10.840;2023-07-02T16:00:01;10.13;;;4.60;;
64868;SDS011;51349;52.424;10.840;2023-07-02T16:05:02;7.05;;;4.68;;
64868;SDS011;51349;52.424;10.840;2023-07-02T16:10:04;5.95;;;4.80;;
64868;SDS011;51349;52.424;10.840;2023-07-02T16:15:05;7.43;;;4.85;;
64868;SDS011;51349;52.424;10.840;2023-07-02T16:20:06;6.07;;;4.90;;
64868;SDS011;51349;52.424;10.840;2023-07-02T16:25:08;8.88;;;4.30;;
64868;SDS011;51349;52.424;10.840;2023-07-02T16:30:09;7.32;;;4.35;;
64868;SDS011;51349;52.424;10.840;2023-07-02T16:35:10;6.35;;;5.75;;
64868;SDS011;51349;52.424;10.840;2023-07-02T16:40:10;6.03;;;4.40;;
64868;SDS011;51349;52.424;10.840;2023-07-02T16:45:11;8.85;;;7.95;;
64868;SDS011;51349;52.424;10.840;2023-07-02T16:50:12;6.80;;;4.93;;
64868;SDS011;51349;52.424;10.840;2023-07-02T16:55:12;7.70;;;5.13;;
64868;SDS011;51349;52.424;10.840;2023-07-02T17:00:13;13.40;;;5.60;;
64868;SDS011;51349;52.424;10.840;2023-07-02T17:05:14;9.40;;;4.57;;
64868;SDS011;51349;52.424;10.840;2023-07-02T17:10:15;7.55;;;4.25;;
64868;SDS011;51349;52.424;10.840;2023-07-02T17:15:16;7.28;;;4.13;;
64868;SDS011;51349;52.424;10.840;2023-07-02T17:20:17;5.75;;;4.22;;
64868;SDS011;51349;52.424;10.840;2023-07-02T17:25:18;6.65;;;4.28;;
64868;SDS011;51349;52.424;10.840;2023-07-02T17:30:18;6.95;;;3.90;;
64868;SDS011;51349;52.424;10.840;2023-07-02T17:35:19;4.93;;;3.88;;
64868;SDS011;51349;52.424;10.840;2023-07-02T17:40:20;5.22;;;3.92;;
64868;SDS011;51349;52.424;10.840;2023-07-02T17:45:20;6.60;;;3.95;;
64868;SDS011;51349;52.424;10.840;2023-07-02T17:50:21;6.47;;;3.92;;
64868;SDS011;51349;52.424;10.840;2023-07-02T17:55:22;5.22;;;4.07;;
64868;SDS011;51349;52.424;10.840;2023-07-02T18:00:22;4.93;;;3.95;;
64868;SDS011;51349;52.424;10.840;2023-07-02T18:05:23;6.32;;;3.75;;
64868;SDS011;51349;52.424;10.840;2023-07-02T18:10:24;6.22;;;4.22;;
64868;SDS011;51349;52.424;10.840;2023-07-02T18:15:25;5.15;;;3.80;;
64868;SDS011;51349;52.424;10.840;2023-07-02T18:20:25;3.80;;;3.40;;
64868;SDS011;51349;52.424;10.840;2023-07-02T18:25:28;6.15;;;3.90;;
64868;SDS011;51349;52.424;10.840;2023-07-02T18:30:29;6.10;;;4.00;;
64868;SDS011;51349;52.424;10.840;2023-07-02T18:35:32;5.47;;;3.42;;
64868;SDS011;51349;52.424;10.840;2023-07-02T18:40:34;5.60;;;3.90;;
64868;SDS011;51349;52.424;10.840;2023-07-02T18:45:35;6.50;;;3.90;;
64868;SDS011;51349;52.424;10.840;2023-07-02T18:50:36;4.55;;;3.72;;
64868;SDS011;51349;52.424;10.840;2023-07-02T18:55:37;6.07;;;3.70;;
64868;SDS011;51349;52.424;10.840;2023-07-02T19:00:38;5.43;;;3.75;;
64868;SDS011;51349;52.424;10.840;2023-07-02T19:05:38;4.63;;;3.75;;
64868;SDS011;51349;52.424;10.840;2023-07-02T19:10:39;5.35;;;3.83;;
64868;SDS011;51349;52.424;10.840;2023-07-02T19:15:40;4.80;;;3.67;;
64868;SDS011;51349;52.424;10.840;2023-07-02T19:20:41;4.38;;;3.58;;
64868;SDS011;51349;52.424;10.840;2023-07-02T19:25:41;6.95;;;3.85;;
64868;SDS011;51349;52.424;10.840;2023-07-02T19:30:43;7.75;;;3.75;;
64868;SDS011;51349;52.424;10.840;2023-07-02T19:35:44;5.72;;;3.80;;
64868;SDS011;51349;52.424;10.840;2023-07-02T19:40:55;5.15;;;3.55;;
64868;SDS011;51349;52.424;10.840;2023-07-02T19:45:57;5.93;;;4.03;;
64868;SDS011;51349;52.424;10.840;2023-07-02T19:51:02;4.78;;;3.92;;
64868;SDS011;51349;52.424;10.840;2023-07-02T19:56:04;4.65;;;3.83;;
64868;SDS011;51349;52.424;10.840;2023-07-02T20:01:10;3.83;;;3.53;;
64868;SDS011;51349;52.424;10.840;2023-07-02T20:06:12;5.18;;;3.38;;
64868;SDS011;51349;52.424;10.840;2023-07-02T20:11:13;4.28;;;3.75;;
64868;SDS011;51349;52.424;10.840;2023-07-02T20:16:14;5.57;;;3.97;;
64868;SDS011;51349;52.424;10.840;2023-07-02T20:21:14;5.05;;;3.60;;
64868;SDS011;51349;52.424;10.840;2023-07-02T20:26:15;4.18;;;3.28;;
64868;SDS011;51349;52.424;10.840;2023-07-02T20:31:16;4.07;;;3.55;;
64868;SDS011;51349;52.424;10.840;2023-07-02T20:36:16;5.88;;;3.50;;
64868;SDS011;51349;52.424;10.840;2023-07-02T20:41:22;6.32;;;3.63;;
64868;SDS011;51349;52.424;10.840;2023-07-02T20:46:23;4.28;;;3.33;;
64868;SDS011;51349;52.424;10.840;2023-07-02T20:51:25;4.45;;;3.70;;
64868;SDS011;51349;52.424;10.840;2023-07-02T20:56:26;4.65;;;3.58;;
64868;SDS011;51349;52.424;10.840;2023-07-02T21:01:27;5.55;;;3.42;;
64868;SDS011;51349;52.424;10.840;2023-07-02T21:06:27;5.22;;;3.90;;
64868;SDS011;51349;52.424;10.840;2023-07-02T21:11:28;5.82;;;3.70;;
64868;SDS011;51349;52.424;10.840;2023-07-02T21:16:29;7.93;;;3.72;;
64868;SDS011;51349;52.424;10.840;2023-07-02T21:21:30;4.43;;;3.60;;
64868;SDS011;51349;52.424;10.840;2023-07-02T21:26:31;5.80;;;4.00;;
64868;SDS011;51349;52.424;10.840;2023-07-02T21:31:31;5.57;;;3.35;;
64868;SDS011;51349;52.424;10.840;2023-07-02T21:36:33;4.32;;;3.45;;
64868;SDS011;51349;52.424;10.840;2023-07-02T21:41:36;4.10;;;3.70;;
64868;SDS011;51349;52.424;10.840;2023-07-02T21:46:37;5.57;;;3.63;;
64868;SDS011;51349;52.424;10.840;2023-07-02T21:51:37;6.07;;;3.60;;
64868;SDS011;51349;52.424;10.840;2023-07-02T21:56:38;5.10;;;3.42;;
64868;SDS011;51349;52.424;10.840;2023-07-02T22:01:39;5.97;;;4.03;;
64868;SDS011;51349;52.424;10.840;2023-07-02T22:06:40;8.43;;;3.65;;
64868;SDS011;51349;52.424;10.840;2023-07-02T22:11:40;6.20;;;3.83;;
64868;SDS011;51349;52.424;10.840;2023-07-02T22:16:41;7.93;;;3.97;;
64868;SDS011;51349;52.424;10.840;2023-07-02T22:21:41;4.40;;;3.65;;
64868;SDS011;51349;52.424;10.840;2023-07-02T22:26:44;6.63;;;4.07;;
64868;SDS011;51349;52.424;10.840;2023-07-02T22:31:45;5.18;;;3.70;;
64868;SDS011;51349;52.424;10.840;2023-07-02T22:36:45;5.40;;;3.97;;
64868;SDS011;51349;52.424;10.840;2023-07-02T22:41:46;5.47;;;3.80;;
64868;SDS011;51349;52.424;10.840;2023-07-02T22:46:47;6.88;;;3.72;;
64868;SDS011;51349;52.424;10.840;2023-07-02T22:51:48;6.05;;;3.67;;
64868;SDS011;51349;52.424;10.840;2023-07-02T22:56:49;4.30;;;3.75;;
64868;SDS011;51349;52.424;10.840;2023-07-02T23:01:50;7.10;;;4.28;;
64868;SDS011;51349;52.424;10.840;2023-07-02T23:06:51;5.28;;;3.65;;
64868;SDS011;51349;52.424;10.840;2023-07-02T23:11:52;4.93;;;3.53;;
64868;SDS011;51349;52.424;10.840;2023-07-02T23:16:53;6.13;;;3.70;;
64868;SDS011;51349;52.424;10.840;2023-07-02T23:21:54;4.82;;;3.95;;
64868;SDS011;51349;52.424;10.840;2023-07-02T23:26:54;5.47;;;3.53;;
64868;SDS011;51349;52.424;10.840;2023-07-02T23:31:55;4.80;;;3.55;;
64868;SDS011;51349;52.424;10.840;2023-07-02T23:36:56;5.10;;;3.47;;
64868;SDS011;51349;52.424;10.840;2023-07-02T23:41:56;4.75;;;3.33;;
64868;SDS011;51349;52.424;10.840;2023-07-02T23:46:57;5.22;;;3.88;;
64868;SDS011;51349;52.424;10.840;2023-07-02T23:51:58;4.95;;;3.47;;
64868;SDS011;51349;52.424;10.840;2023-07-02T23:56:59;4.35;;;3.40;;
